createdAt,value
2022-09-17T00:02:10.957Z,96232.50
2022-09-17T00:04:40.352Z,96234.47
2022-09-17T00:07:08.510Z,96233.63
2022-09-17T00:09:36.758Z,96233.19
2022-09-17T00:12:05.366Z,96233.06
2022-09-17T00:14:33.420Z,96227.63
2022-09-17T00:17:02.091Z,96229.25
2022-09-17T00:19:30.341Z,96234.69
2022-09-17T00:21:59.657Z,96228.59
2022-09-17T00:24:29.323Z,96229.59
2022-09-17T00:26:59.649Z,96231.44
2022-09-17T00:29:27.761Z,96233.63
2022-09-17T00:31:55.781Z,96232.28
2022-09-17T00:34:23.948Z,96222.25
2022-09-17T00:36:51.993Z,96231.91
2022-09-17T00:39:21.524Z,96233.41
2022-09-17T00:41:49.558Z,96236.50
2022-09-17T00:44:45.994Z,96231.69
2022-09-17T00:47:23.028Z,96233.88
2022-09-17T00:49:56.399Z,96228.25
2022-09-17T00:52:29.564Z,96232.72
2022-09-17T00:55:08.977Z,96237.44
2022-09-17T00:57:37.428Z,96242.72
2022-09-17T01:00:31.072Z,96244.34
2022-09-17T01:03:00.697Z,96247.63
2022-09-17T01:05:37.271Z,96245.47
2022-09-17T01:08:17.367Z,96241.69
2022-09-17T01:11:13.053Z,96248.69
2022-09-17T01:13:55.070Z,96241.34
2022-09-17T01:16:32.435Z,96251.91
2022-09-17T01:19:31.593Z,96251.31
2022-09-17T01:22:08.389Z,96249.03
2022-09-17T01:25:16.085Z,96254.53
2022-09-17T01:28:32.820Z,96254.09
2022-09-17T01:31:24.344Z,96251.53
2022-09-17T01:34:02.226Z,96258.00
2022-09-17T01:36:45.779Z,96252.81
2022-09-17T01:39:26.706Z,96260.88
2022-09-17T01:42:02.748Z,96263.28
2022-09-17T01:44:38.614Z,96268.41
2022-09-17T01:47:20.301Z,96266.97
2022-09-17T01:49:52.871Z,96260.75
2022-09-17T01:52:22.015Z,96261.53
2022-09-17T01:54:55.426Z,96266.94
2022-09-17T01:57:29.825Z,96264.66
2022-09-17T02:00:03.337Z,96265.44
2022-09-17T02:02:46.760Z,96265.34
2022-09-17T02:05:20.441Z,96264.06
2022-09-17T02:07:55.415Z,96262.22
2022-09-17T02:10:28.567Z,96265.66
2022-09-17T02:13:02.536Z,96265.22
2022-09-17T02:15:37.251Z,96268.78
2022-09-17T02:18:11.599Z,96270.50
2022-09-17T02:20:46.301Z,96266.69
2022-09-17T02:23:19.291Z,96261.28
2022-09-17T02:25:56.093Z,96256.50
2022-09-17T02:28:33.835Z,96252.59
2022-09-17T02:31:02.372Z,96261.88
2022-09-17T02:33:34.262Z,96262.84
2022-09-17T02:36:05.397Z,96265.22
2022-09-17T02:38:33.643Z,96258.22
2022-09-17T02:41:13.962Z,96264.16
2022-09-17T02:43:55.324Z,96267.84
2022-09-17T02:46:46.701Z,96261.53
2022-09-17T02:49:42.775Z,96262.69
2022-09-17T02:52:22.422Z,96260.63
2022-09-17T02:55:02.212Z,96248.31
2022-09-17T02:57:38.983Z,96259.13
2022-09-17T03:00:15.319Z,96252.00
2022-09-17T03:02:48.215Z,96251.88
2022-09-17T03:05:25.030Z,96245.81
2022-09-17T03:07:53.139Z,96245.00
2022-09-17T03:10:21.191Z,96246.50
2022-09-17T03:12:49.243Z,96247.44
2022-09-17T03:15:19.275Z,96250.84
2022-09-17T03:17:51.233Z,96250.75
2022-09-17T03:20:22.697Z,96254.88
2022-09-17T03:22:52.533Z,96248.00
2022-09-17T03:25:20.587Z,96248.44
2022-09-17T03:27:48.821Z,96245.22
2022-09-17T03:30:17.016Z,96250.75
2022-09-17T03:32:45.039Z,96246.63
2022-09-17T03:35:13.016Z,96250.19
2022-09-17T03:37:43.116Z,96249.72
2022-09-17T03:40:11.731Z,96256.97
2022-09-17T03:42:39.883Z,96260.06
2022-09-17T03:45:09.505Z,96256.81
2022-09-17T03:47:38.338Z,96256.47
2022-09-17T03:50:07.624Z,96259.00
2022-09-17T03:52:36.223Z,96267.59
2022-09-17T03:55:06.798Z,96274.25
2022-09-17T03:57:34.841Z,96275.41
2022-09-17T04:00:03.318Z,96274.59
2022-09-17T04:02:40.236Z,96273.78
2022-09-17T04:05:10.416Z,96273.78
2022-09-17T04:07:40.205Z,96272.06
2022-09-17T04:10:10.689Z,96275.50
2022-09-17T04:12:38.771Z,96280.41
2022-09-17T04:15:08.769Z,96276.53
2022-09-17T04:17:36.746Z,96272.63
2022-09-17T04:20:06.051Z,96281.78
2022-09-17T04:22:34.335Z,96284.09
2022-09-17T04:25:02.365Z,96275.50
2022-09-17T04:27:31.901Z,96278.38
2022-09-17T04:30:01.552Z,96276.50
2022-09-17T04:32:29.633Z,96272.16
2022-09-17T04:34:57.672Z,96277.56
2022-09-17T04:37:26.302Z,96283.28
2022-09-17T04:39:54.616Z,96288.09
2022-09-17T04:42:23.563Z,96286.47
2022-09-17T04:44:52.957Z,96291.88
2022-09-17T04:47:20.993Z,96296.69
2022-09-17T04:49:49.081Z,96295.69
2022-09-17T04:52:17.271Z,96304.97
2022-09-17T04:54:45.432Z,96299.59
2022-09-17T04:57:13.434Z,96302.72
2022-09-17T04:59:41.572Z,96304.53
2022-09-17T05:02:11.040Z,96310.38
2022-09-17T05:04:39.141Z,96306.25
2022-09-17T05:07:09.892Z,96319.22
2022-09-17T05:09:40.079Z,96317.41
2022-09-17T05:12:08.564Z,96322.69
2022-09-17T05:14:36.595Z,96324.16
2022-09-17T05:17:04.677Z,96330.84
2022-09-17T05:19:34.078Z,96324.84
2022-09-17T05:22:02.247Z,96327.03
2022-09-17T05:24:30.907Z,96322.69
2022-09-17T05:26:58.926Z,96320.72
2022-09-17T05:29:27.088Z,96317.41
2022-09-17T05:31:55.128Z,96315.66
2022-09-17T05:34:23.131Z,96316.25
2022-09-17T05:36:52.554Z,96319.94
2022-09-17T05:39:22.584Z,96319.13
2022-09-17T05:41:50.605Z,96318.69
2022-09-17T05:44:19.001Z,96316.25
2022-09-17T05:46:47.503Z,96322.34
2022-09-17T05:49:16.137Z,96322.09
2022-09-17T05:51:44.163Z,96326.38
2022-09-17T05:54:13.528Z,96320.59
2022-09-17T05:56:41.575Z,96325.44
2022-09-17T05:59:09.649Z,96333.25
2022-09-17T06:01:37.751Z,96342.22
2022-09-17T06:04:05.806Z,96340.72
2022-09-17T06:06:33.861Z,96352.88
2022-09-17T06:09:02.114Z,96346.44
2022-09-17T06:11:31.530Z,96357.00
2022-09-17T06:13:59.935Z,96352.38
2022-09-17T06:16:28.372Z,96364.72
2022-09-17T06:18:56.665Z,96361.50
2022-09-17T06:21:24.947Z,96367.25
2022-09-17T06:23:53.222Z,96359.53
2022-09-17T06:26:21.223Z,96365.41
2022-09-17T06:28:50.620Z,96368.94
2022-09-17T06:31:18.871Z,96364.94
2022-09-17T06:33:48.159Z,96356.22
2022-09-17T06:36:16.230Z,96361.41
2022-09-17T06:38:44.772Z,96367.84
2022-09-17T06:41:14.531Z,96367.84
2022-09-17T06:43:42.624Z,96368.63
2022-09-17T06:46:13.039Z,96371.38
2022-09-17T06:48:41.076Z,96374.84
2022-09-17T06:51:11.672Z,96374.38
2022-09-17T06:53:40.620Z,96378.72
2022-09-17T06:56:10.654Z,96384.69
2022-09-17T06:58:41.456Z,96381.09
2022-09-17T07:01:12.227Z,96391.22
2022-09-17T07:03:42.774Z,96377.91
2022-09-17T07:06:12.455Z,96382.84
2022-09-17T07:08:41.602Z,96392.25
2022-09-17T07:11:09.749Z,96389.25
2022-09-17T07:13:37.872Z,96397.31
2022-09-17T07:16:08.557Z,96392.78
2022-09-17T07:18:38.820Z,96399.34
2022-09-17T07:21:08.233Z,96392.34
2022-09-17T07:23:38.088Z,96396.06
2022-09-17T07:26:08.880Z,96398.25
2022-09-17T07:28:39.740Z,96394.47
2022-09-17T07:31:13.778Z,96398.16
2022-09-17T07:33:46.155Z,96407.19
2022-09-17T07:36:17.790Z,96412.44
2022-09-17T07:38:46.211Z,96409.47
2022-09-17T07:41:17.197Z,96412.13
2022-09-17T07:43:46.315Z,96411.50
2022-09-17T07:46:17.661Z,96418.66
2022-09-17T07:48:47.787Z,96407.06
2022-09-17T07:51:18.243Z,96411.06
2022-09-17T07:53:46.701Z,96413.94
2022-09-17T07:56:15.087Z,96419.50
2022-09-17T07:58:43.260Z,96424.38
2022-09-17T08:01:15.318Z,96421.50
2022-09-17T08:03:49.125Z,96437.03
2022-09-17T08:06:21.975Z,96436.94
2022-09-17T08:08:50.587Z,96440.50
2022-09-17T08:11:38.568Z,96446.13
2022-09-17T08:14:12.909Z,96445.78
2022-09-17T08:16:41.163Z,96442.50
2022-09-17T08:19:11.111Z,96450.72
2022-09-17T08:21:39.363Z,96447.78
2022-09-17T08:24:07.939Z,96447.41
2022-09-17T08:26:35.984Z,96443.03
2022-09-17T08:29:04.449Z,96451.91
2022-09-17T08:31:33.427Z,96443.75
2022-09-17T08:34:01.613Z,96446.31
2022-09-17T08:36:31.273Z,96449.16
2022-09-17T08:38:59.444Z,96447.56
2022-09-17T08:41:38.694Z,96438.16
2022-09-17T08:44:22.328Z,96440.50
2022-09-17T08:46:54.128Z,96439.13
2022-09-17T08:49:35.303Z,96446.72
2022-09-17T08:52:48.019Z,96443.84
2022-09-17T08:55:36.696Z,96450.22
2022-09-17T08:58:30.497Z,96447.91
2022-09-17T09:01:10.833Z,96453.06
2022-09-17T09:03:55.544Z,96455.94
2022-09-17T09:06:28.319Z,96452.72
2022-09-17T09:09:04.545Z,96452.03
2022-09-17T09:11:33.896Z,96452.84
2022-09-17T09:14:11.384Z,96460.91
2022-09-17T09:16:42.657Z,96448.72
2022-09-17T09:19:23.097Z,96453.41
2022-09-17T09:22:05.209Z,96453.56
2022-09-17T09:24:42.516Z,96455.50
2022-09-17T09:27:19.385Z,96453.41
2022-09-17T09:30:04.195Z,96451.00
2022-09-17T09:32:57.668Z,96453.22
2022-09-17T09:35:28.545Z,96448.94
2022-09-17T09:38:05.573Z,96461.81
2022-09-17T09:40:42.526Z,96458.47
2022-09-17T09:43:20.593Z,96463.53
2022-09-17T09:46:38.267Z,96464.09
2022-09-17T09:49:20.313Z,96465.94
2022-09-17T09:52:05.590Z,96464.41
2022-09-17T09:54:51.779Z,96460.50
2022-09-17T09:57:34.304Z,96457.28
2022-09-17T10:00:26.928Z,96459.28
2022-09-17T10:03:03.018Z,96456.38
2022-09-17T10:05:31.788Z,96455.56
2022-09-17T10:08:00.413Z,96460.19
2022-09-17T10:10:28.455Z,96455.19
2022-09-17T10:13:14.836Z,96450.22
2022-09-17T10:15:42.993Z,96451.81
2022-09-17T10:18:19.196Z,96457.41
2022-09-17T10:20:56.482Z,96462.09
2022-09-17T10:23:27.572Z,96451.81
2022-09-17T10:25:56.860Z,96451.59
2022-09-17T10:28:46.691Z,96450.72
2022-09-17T10:31:15.279Z,96437.69
2022-09-17T10:33:59.002Z,96444.31
2022-09-17T10:36:44.860Z,96444.47
2022-09-17T10:39:42.541Z,96450.72
2022-09-17T10:42:16.531Z,96452.31
2022-09-17T10:44:55.668Z,96447.97
2022-09-17T10:47:28.980Z,96446.94
2022-09-17T10:50:01.285Z,96457.22
2022-09-17T10:52:34.296Z,96437.94
2022-09-17T10:55:19.360Z,96432.75
2022-09-17T10:58:14.592Z,96438.59
2022-09-17T11:01:00.457Z,96423.81
2022-09-17T11:04:21.216Z,96424.91
2022-09-17T11:07:41.100Z,96432.16
2022-09-17T11:10:22.421Z,96427.88
2022-09-17T11:13:12.002Z,96421.44
2022-09-17T11:16:01.093Z,96424.69
2022-09-17T11:18:38.258Z,96420.19
2022-09-17T11:21:38.985Z,96413.19
2022-09-17T11:24:46.740Z,96407.28
2022-09-17T11:27:31.670Z,96399.03
2022-09-17T11:30:11.179Z,96393.31
2022-09-17T11:33:06.320Z,96404.47
2022-09-17T11:35:38.497Z,96405.22
2022-09-17T11:38:15.037Z,96404.84
2022-09-17T11:40:47.450Z,96401.81
2022-09-17T11:43:29.609Z,96395.50
2022-09-17T11:46:04.418Z,96392.84
2022-09-17T11:48:46.454Z,96398.69
2022-09-17T11:51:31.424Z,96389.84
2022-09-17T11:54:07.692Z,96389.66
2022-09-17T11:56:42.453Z,96396.94
2022-09-17T11:59:19.463Z,96396.47
2022-09-17T12:01:53.242Z,96394.19
2022-09-17T12:04:46.079Z,96400.38
2022-09-17T12:07:30.961Z,96394.19
2022-09-17T12:10:10.190Z,96406.88
2022-09-17T12:12:50.136Z,96398.63
2022-09-17T12:15:24.475Z,96402.97
2022-09-17T12:18:30.525Z,96400.31
2022-09-17T12:20:57.805Z,96397.69
2022-09-17T12:23:40.743Z,96395.50
2022-09-17T12:26:34.324Z,96406.13
2022-09-17T12:29:09.874Z,96419.78
2022-09-17T12:31:48.517Z,96418.44
2022-09-17T12:34:36.939Z,96420.16
2022-09-17T12:37:14.942Z,96432.84
2022-09-17T12:40:18.575Z,96437.19
2022-09-17T12:43:18.739Z,96430.88
2022-09-17T12:46:10.177Z,96436.03
2022-09-17T12:49:10.706Z,96431.50
2022-09-17T12:51:58.278Z,96421.72
2022-09-17T12:55:07.212Z,96471.28
2022-09-17T12:57:44.461Z,96456.69
2022-09-17T13:00:14.405Z,96440.84
2022-09-17T13:02:49.908Z,96445.22
2022-09-17T13:06:10.840Z,96433.75
2022-09-17T13:09:08.019Z,96438.63
2022-09-17T13:12:09.231Z,96435.84
2022-09-17T13:15:23.989Z,96435.38
2022-09-17T13:18:13.186Z,96435.47
2022-09-17T13:21:03.037Z,96425.38
2022-09-17T13:23:37.160Z,96428.59
2022-09-17T13:26:06.800Z,96424.91
2022-09-17T13:28:46.947Z,96414.47
2022-09-17T13:31:22.517Z,96399.38
2022-09-17T13:33:56.973Z,96408.34
2022-09-17T13:36:41.420Z,96410.38
2022-09-17T13:39:33.444Z,96417.03
2022-09-17T13:42:08.198Z,96409.09
2022-09-17T13:44:42.069Z,96408.28
2022-09-17T13:47:18.981Z,96413.00
2022-09-17T13:49:56.119Z,96419.66
2022-09-17T13:52:43.769Z,96408.50
2022-09-17T13:55:35.134Z,96405.00
2022-09-17T13:58:08.950Z,96406.63
2022-09-17T14:01:21.328Z,96397.50
2022-09-17T14:03:57.096Z,96390.88
2022-09-17T14:06:53.805Z,96402.69
2022-09-17T14:09:52.809Z,96403.44
2022-09-17T14:12:58.216Z,96396.09
2022-09-17T14:16:02.052Z,96395.94
2022-09-17T14:18:46.177Z,96387.44
2022-09-17T14:21:26.832Z,96398.66
2022-09-17T14:23:59.512Z,96392.16
2022-09-17T14:27:12.196Z,96395.03
2022-09-17T14:30:12.733Z,96396.53
2022-09-17T14:32:49.448Z,96395.88
2022-09-17T14:35:24.018Z,96394.94
2022-09-17T14:37:58.941Z,96394.13
2022-09-17T14:40:28.153Z,96398.38
2022-09-17T14:42:59.285Z,96389.59
2022-09-17T14:45:32.661Z,96387.44
2022-09-17T14:48:31.701Z,96385.75
2022-09-17T14:51:29.056Z,96380.97
2022-09-17T14:54:21.452Z,96387.28
2022-09-17T14:57:00.262Z,96380.09
2022-09-17T14:59:44.379Z,96387.50
2022-09-17T15:02:33.244Z,96389.06
2022-09-17T15:05:27.313Z,96383.38
2022-09-17T15:11:58.007Z,96388.47
2022-09-17T15:14:50.975Z,96380.31
2022-09-17T15:17:20.205Z,96381.91
2022-09-17T15:20:21.125Z,96379.84
2022-09-17T15:23:06.165Z,96386.84
2022-09-17T15:25:35.650Z,96384.13
2022-09-17T15:28:18.238Z,96389.16
2022-09-17T15:30:50.824Z,96391.13
2022-09-17T15:33:19.597Z,96387.66
2022-09-17T15:36:08.687Z,96393.16
2022-09-17T15:38:39.198Z,96388.38
2022-09-17T15:41:31.849Z,96393.28
2022-09-17T15:44:29.920Z,96398.50
2022-09-17T15:47:38.468Z,96391.34
2022-09-17T15:50:16.565Z,96397.78
2022-09-17T15:52:46.730Z,96395.13
2022-09-17T15:55:37.137Z,96394.09
2022-09-17T15:58:21.573Z,96398.22
2022-09-17T16:01:14.996Z,96389.81
2022-09-17T16:04:26.998Z,96392.25
2022-09-17T16:07:31.277Z,96395.25
2022-09-17T16:10:00.964Z,96398.72
2022-09-17T16:12:30.044Z,96401.94
2022-09-17T16:15:00.844Z,96400.78
2022-09-17T16:17:36.582Z,96397.09
2022-09-17T16:20:15.725Z,96402.31
2022-09-17T16:22:44.697Z,96403.22
2022-09-17T16:25:15.833Z,96404.34
2022-09-17T16:27:52.374Z,96401.13
2022-09-17T16:30:23.401Z,96397.22
2022-09-17T16:32:52.134Z,96409.16
2022-09-17T16:35:22.339Z,96405.38
2022-09-17T16:37:52.136Z,96401.13
2022-09-17T16:40:24.155Z,96407.88
2022-09-17T16:42:52.360Z,96400.00
2022-09-17T16:45:21.488Z,96405.94
2022-09-17T16:47:51.530Z,96399.53
2022-09-17T16:50:19.987Z,96400.78
2022-09-17T16:52:48.125Z,96400.34
2022-09-17T16:55:18.440Z,96423.66
2022-09-17T16:57:48.527Z,96432.09
2022-09-17T17:00:24.074Z,96422.34
2022-09-17T17:02:57.916Z,96414.53
2022-09-17T17:05:27.772Z,96418.78
2022-09-17T17:07:57.149Z,96415.44
2022-09-17T17:10:27.491Z,96412.44
2022-09-17T17:13:01.318Z,96419.47
2022-09-17T17:15:30.308Z,96426.72
2022-09-17T17:17:58.987Z,96420.06
2022-09-17T17:20:27.059Z,96429.03
2022-09-17T17:22:56.234Z,96431.00
2022-09-17T17:25:24.681Z,96429.72
2022-09-17T17:27:52.708Z,96437.56
2022-09-17T17:30:22.233Z,96441.09
2022-09-17T17:32:52.210Z,96443.53
2022-09-17T17:35:21.035Z,96455.59
2022-09-17T17:37:49.182Z,96462.84
2022-09-17T17:40:17.715Z,96456.75
2022-09-17T17:42:53.449Z,96453.19
2022-09-17T17:45:24.316Z,96458.25
2022-09-17T17:47:53.867Z,96451.22
2022-09-17T17:50:21.947Z,96452.59
2022-09-17T17:52:49.988Z,96454.13
2022-09-17T17:55:18.283Z,96450.66
2022-09-17T17:57:46.310Z,96452.84
2022-09-17T18:00:16.866Z,96455.72
2022-09-17T18:02:46.547Z,96453.97
2022-09-17T18:05:15.094Z,96456.03
2022-09-17T18:07:43.327Z,96446.38
2022-09-17T18:10:13.085Z,96454.78
2022-09-17T18:12:41.135Z,96457.22
2022-09-17T18:15:09.999Z,96455.34
2022-09-17T18:17:38.231Z,96459.59
2022-09-17T18:20:08.450Z,96463.31
2022-09-17T18:22:36.873Z,96458.81
2022-09-17T18:25:05.472Z,96462.63
2022-09-17T18:27:33.797Z,96480.66
2022-09-17T18:30:01.980Z,96483.88
2022-09-17T18:32:30.093Z,96481.44
2022-09-17T18:34:58.222Z,96489.50
2022-09-17T18:37:29.877Z,96485.47
2022-09-17T18:39:59.349Z,96495.44
2022-09-17T18:42:28.126Z,96488.44
2022-09-17T18:44:56.231Z,96489.97
2022-09-17T18:47:24.614Z,96497.75
2022-09-17T18:49:52.713Z,96491.78
2022-09-17T18:52:21.221Z,96499.72
2022-09-17T18:54:50.582Z,96512.22
2022-09-17T18:57:18.715Z,96520.03
2022-09-17T18:59:47.020Z,96530.41
2022-09-17T19:02:15.114Z,96561.72
2022-09-17T19:04:43.167Z,96581.53
2022-09-17T19:07:11.307Z,96577.78
2022-09-17T19:09:39.296Z,96560.47
2022-09-17T19:12:09.038Z,96562.75
2022-09-17T19:14:37.217Z,96578.41
2022-09-17T19:17:05.299Z,96584.00
2022-09-17T19:19:33.531Z,96576.00
2022-09-17T19:22:01.692Z,96550.84
2022-09-17T19:24:29.729Z,96552.41
2022-09-17T19:26:58.815Z,96559.16
2022-09-17T19:29:28.300Z,96557.69
2022-09-17T19:31:56.372Z,96564.13
2022-09-17T19:34:24.661Z,96566.63
2022-09-17T19:36:53.757Z,96565.59
2022-09-17T19:39:21.840Z,96566.56
2022-09-17T19:41:49.859Z,96565.69
2022-09-17T19:44:18.025Z,96575.41
2022-09-17T19:46:49.941Z,96576.34
2022-09-17T19:49:18.015Z,96580.31
2022-09-17T19:51:46.268Z,96590.03
2022-09-17T19:54:14.280Z,96589.41
2022-09-17T19:56:42.356Z,96593.50
2022-09-17T19:59:10.431Z,96589.91
2022-09-17T20:01:38.624Z,96593.78
2022-09-17T20:04:10.276Z,96593.56
2022-09-17T20:06:38.951Z,96595.66
2022-09-17T20:09:07.035Z,96601.75
2022-09-17T20:11:35.071Z,96605.69
2022-09-17T20:14:06.480Z,96599.00
2022-09-17T20:16:36.720Z,96603.56
2022-09-17T20:19:06.116Z,96608.28
2022-09-17T20:21:36.067Z,96603.28
2022-09-17T20:24:06.974Z,96603.22
2022-09-17T20:26:35.995Z,96604.53
2022-09-17T20:29:04.690Z,96607.41
2022-09-17T20:31:33.487Z,96601.28
2022-09-17T20:34:03.642Z,96605.31
2022-09-17T20:36:35.396Z,96606.91
2022-09-17T20:39:22.451Z,96606.69
2022-09-17T20:41:51.586Z,96600.63
2022-09-17T20:44:20.636Z,96612.31
2022-09-17T20:46:48.843Z,96612.16
2022-09-17T20:49:16.915Z,96622.72
2022-09-17T20:51:44.914Z,96615.22
2022-09-17T20:54:15.250Z,96625.22
2022-09-17T20:56:43.287Z,96620.97
2022-09-17T20:59:17.797Z,96619.47
2022-09-17T21:01:49.876Z,96621.47
2022-09-17T21:04:20.936Z,96615.84
2022-09-17T21:06:53.072Z,96621.94
2022-09-17T21:09:22.452Z,96618.13
2022-09-17T21:11:50.812Z,96616.66
2022-09-17T21:14:20.580Z,96609.31
2022-09-17T21:16:48.948Z,96615.84
2022-09-17T21:19:17.102Z,96615.63
2022-09-17T21:21:47.959Z,96628.97
2022-09-17T21:24:16.025Z,96620.44
2022-09-17T21:26:46.234Z,96624.72
2022-09-17T21:29:14.320Z,96623.06
2022-09-17T21:31:42.470Z,96629.44
2022-09-17T21:34:14.008Z,96637.28
2022-09-17T21:36:44.555Z,96644.00
2022-09-17T21:39:14.992Z,96637.84
2022-09-17T21:41:43.683Z,96644.00
2022-09-17T21:44:14.124Z,96637.81
2022-09-17T21:46:43.306Z,96636.41
2022-09-17T21:49:13.231Z,96646.75
2022-09-17T21:51:43.347Z,96635.41
2022-09-17T21:54:15.271Z,96631.81
2022-09-17T21:56:43.912Z,96642.97
2022-09-17T21:59:15.265Z,96642.72
2022-09-17T22:01:46.853Z,96638.94
2022-09-17T22:04:17.545Z,96640.00
2022-09-17T22:06:47.899Z,96649.66
2022-09-17T22:09:20.469Z,96644.16
2022-09-17T22:11:49.159Z,96650.34
2022-09-17T22:14:20.814Z,96643.25
2022-09-17T22:16:52.527Z,96649.56
2022-09-17T22:19:22.278Z,96642.81
2022-09-17T22:21:52.666Z,96641.09
2022-09-17T22:24:22.734Z,96639.50
2022-09-17T22:26:57.282Z,96637.84
2022-09-17T22:29:31.412Z,96643.81
2022-09-17T22:31:59.475Z,96641.38
2022-09-17T22:34:27.489Z,96639.31
2022-09-17T22:36:55.496Z,96637.50
2022-09-17T22:39:24.028Z,96637.97
2022-09-17T22:41:52.238Z,96631.81
2022-09-17T22:44:21.545Z,96627.38
2022-09-17T22:46:52.612Z,96619.19
2022-09-17T22:49:21.098Z,96626.72
2022-09-17T22:51:49.521Z,96619.59
2022-09-17T22:54:19.406Z,96625.84
2022-09-17T22:56:48.884Z,96631.03
2022-09-17T22:59:18.063Z,96619.84
2022-09-17T23:01:46.474Z,96623.22
2022-09-17T23:04:18.159Z,96625.63
2022-09-17T23:06:46.139Z,96634.03
2022-09-17T23:09:15.422Z,96628.06
2022-09-17T23:11:43.715Z,96622.84
2022-09-17T23:14:13.909Z,96631.59
2022-09-17T23:16:44.096Z,96635.63
2022-09-17T23:19:13.108Z,96638.81
2022-09-17T23:21:43.151Z,96630.28
2022-09-17T23:24:15.888Z,96631.25
2022-09-17T23:26:44.037Z,96629.53
2022-09-17T23:29:12.059Z,96632.00
2022-09-17T23:31:41.208Z,96623.66
2022-09-17T23:34:09.353Z,96632.28
2022-09-17T23:36:39.857Z,96635.91
2022-09-17T23:39:11.843Z,96634.44
2022-09-17T23:41:44.758Z,96635.22
2022-09-17T23:44:15.619Z,96632.44
2022-09-17T23:46:45.984Z,96632.22
2022-09-17T23:49:15.385Z,96623.59
2022-09-17T23:51:43.932Z,96639.25
2022-09-17T23:54:13.311Z,96624.66
2022-09-17T23:56:41.347Z,96639.38
2022-09-17T23:59:11.045Z,96642.97
